sensor_id;sensor_type;location;lat;lon;timestamp;temperature;humidity
23869;DHT22;12115;47.128;15.422;2023-02-24T00:01:49;6.60;99.90
23869;DHT22;12115;47.128;15.422;2023-02-24T00:04:19;6.60;99.90
23869;DHT22;12115;47.128;15.422;2023-02-24T00:06:47;6.60;99.90
23869;DHT22;12115;47.128;15.422;2023-02-24T00:09:21;6.60;99.90
23869;DHT22;12115;47.128;15.422;2023-02-24T00:12:02;6.60;99.90
23869;DHT22;12115;47.128;15.422;2023-02-24T00:14:31;6.50;99.90
23869;DHT22;12115;47.128;15.422;2023-02-24T00:17:00;6.50;99.90
23869;DHT22;12115;47.128;15.422;2023-02-24T00:19:29;6.50;99.90
23869;DHT22;12115;47.128;15.422;2023-02-24T00:22:01;6.60;99.90
23869;DHT22;12115;47.128;15.422;2023-02-24T00:24:29;6.60;99.90
23869;DHT22;12115;47.128;15.422;2023-02-24T00:26:59;6.60;99.90
23869;DHT22;12115;47.128;15.422;2023-02-24T00:29:28;6.60;99.90
23869;DHT22;12115;47.128;15.422;2023-02-24T00:31:58;6.60;99.90
23869;DHT22;12115;47.128;15.422;2023-02-24T00:34:28;6.60;99.90
23869;DHT22;12115;47.128;15.422;2023-02-24T00:36:57;6.40;99.90
23869;DHT22;12115;47.128;15.422;2023-02-24T00:39:25;6.30;99.90
23869;DHT22;12115;47.128;15.422;2023-02-24T00:42:05;6.20;99.90
23869;DHT22;12115;47.128;15.422;2023-02-24T00:44:43;6.20;99.90
23869;DHT22;12115;47.128;15.422;2023-02-24T00:47:11;6.30;99.90
23869;DHT22;12115;47.128;15.422;2023-02-24T00:49:40;6.20;99.90
23869;DHT22;12115;47.128;15.422;2023-02-24T00:52:12;6.20;99.90
23869;DHT22;12115;47.128;15.422;2023-02-24T00:54:41;6.30;99.90
23869;DHT22;12115;47.128;15.422;2023-02-24T00:57:09;6.30;99.90
23869;DHT22;12115;47.128;15.422;2023-02-24T00:59:37;6.00;99.90
23869;DHT22;12115;47.128;15.422;2023-02-24T01:02:05;6.00;99.90
23869;DHT22;12115;47.128;15.422;2023-02-24T01:04:34;6.00;99.90
23869;DHT22;12115;47.128;15.422;2023-02-24T01:07:05;6.00;99.90
23869;DHT22;12115;47.128;15.422;2023-02-24T01:09:38;5.90;99.90
23869;DHT22;12115;47.128;15.422;2023-02-24T01:12:11;5.80;99.90
23869;DHT22;12115;47.128;15.422;2023-02-24T01:14:58;5.80;99.90
23869;DHT22;12115;47.128;15.422;2023-02-24T01:17:25;5.80;99.90
23869;DHT22;12115;47.128;15.422;2023-02-24T01:19:53;5.80;99.90
23869;DHT22;12115;47.128;15.422;2023-02-24T01:22:21;5.80;99.90
23869;DHT22;12115;47.128;15.422;2023-02-24T01:24:49;5.80;99.90
23869;DHT22;12115;47.128;15.422;2023-02-24T01:27:18;5.80;99.90
23869;DHT22;12115;47.128;15.422;2023-02-24T01:29:46;5.80;99.90
23869;DHT22;12115;47.128;15.422;2023-02-24T01:32:17;5.80;99.90
23869;DHT22;12115;47.128;15.422;2023-02-24T01:34:46;5.80;99.90
23869;DHT22;12115;47.128;15.422;2023-02-24T01:37:17;5.80;99.90
23869;DHT22;12115;47.128;15.422;2023-02-24T01:39:46;5.80;99.90
23869;DHT22;12115;47.128;15.422;2023-02-24T01:42:15;5.80;99.90
23869;DHT22;12115;47.128;15.422;2023-02-24T01:47:11;5.80;99.90
23869;DHT22;12115;47.128;15.422;2023-02-24T01:49:42;5.60;99.90
23869;DHT22;12115;47.128;15.422;2023-02-24T01:54:45;5.60;99.90
23869;DHT22;12115;47.128;15.422;2023-02-24T01:57:19;5.50;99.90
23869;DHT22;12115;47.128;15.422;2023-02-24T01:59:51;5.50;99.90
23869;DHT22;12115;47.128;15.422;2023-02-24T02:02:21;5.60;99.90
23869;DHT22;12115;47.128;15.422;2023-02-24T02:05:03;5.50;99.90
23869;DHT22;12115;47.128;15.422;2023-02-24T02:07:31;5.60;99.90
23869;DHT22;12115;47.128;15.422;2023-02-24T02:10:00;5.60;99.90
23869;DHT22;12115;47.128;15.422;2023-02-24T02:12:32;5.60;99.90
23869;DHT22;12115;47.128;15.422;2023-02-24T02:15:04;5.60;99.90
23869;DHT22;12115;47.128;15.422;2023-02-24T02:18:16;5.60;99.90
23869;DHT22;12115;47.128;15.422;2023-02-24T02:27:03;5.60;99.90
23869;DHT22;12115;47.128;15.422;2023-02-24T02:35:25;5.60;99.90
23869;DHT22;12115;47.128;15.422;2023-02-24T02:40:38;5.60;99.90
23869;DHT22;12115;47.128;15.422;2023-02-24T02:45:53;5.60;99.90
23869;DHT22;12115;47.128;15.422;2023-02-24T02:48:28;5.60;99.90
23869;DHT22;12115;47.128;15.422;2023-02-24T02:51:04;5.50;99.90
23869;DHT22;12115;47.128;15.422;2023-02-24T02:56:17;5.50;99.90
23869;DHT22;12115;47.128;15.422;2023-02-24T02:58:48;5.60;99.90
23869;DHT22;12115;47.128;15.422;2023-02-24T03:01:22;5.60;99.90
23869;DHT22;12115;47.128;15.422;2023-02-24T03:03:56;5.50;99.90
23869;DHT22;12115;47.128;15.422;2023-02-24T03:06:32;5.50;99.90
23869;DHT22;12115;47.128;15.422;2023-02-24T03:09:16;5.50;99.90
23869;DHT22;12115;47.128;15.422;2023-02-24T03:11:51;5.50;99.90
23869;DHT22;12115;47.128;15.422;2023-02-24T03:14:28;5.50;99.90
23869;DHT22;12115;47.128;15.422;2023-02-24T03:16:59;5.50;99.90
23869;DHT22;12115;47.128;15.422;2023-02-24T03:19:36;5.60;99.90
23869;DHT22;12115;47.128;15.422;2023-02-24T03:22:18;5.60;99.90
23869;DHT22;12115;47.128;15.422;2023-02-24T03:24:47;5.60;99.90
23869;DHT22;12115;47.128;15.422;2023-02-24T03:27:26;5.50;99.90
23869;DHT22;12115;47.128;15.422;2023-02-24T03:30:04;5.50;99.90
23869;DHT22;12115;47.128;15.422;2023-02-24T03:32:40;5.60;99.90
23869;DHT22;12115;47.128;15.422;2023-02-24T03:37:52;5.60;99.90
23869;DHT22;12115;47.128;15.422;2023-02-24T03:40:22;5.60;99.90
23869;DHT22;12115;47.128;15.422;2023-02-24T03:43:07;5.50;99.90
23869;DHT22;12115;47.128;15.422;2023-02-24T03:45:37;5.50;99.90
23869;DHT22;12115;47.128;15.422;2023-02-24T03:48:09;5.50;99.90
23869;DHT22;12115;47.128;15.422;2023-02-24T03:50:40;5.50;99.90
23869;DHT22;12115;47.128;15.422;2023-02-24T03:56:32;5.50;99.90
23869;DHT22;12115;47.128;15.422;2023-02-24T04:02:02;5.50;99.90
23869;DHT22;12115;47.128;15.422;2023-02-24T04:08:06;5.50;99.90
23869;DHT22;12115;47.128;15.422;2023-02-24T04:11:02;5.50;99.90
23869;DHT22;12115;47.128;15.422;2023-02-24T04:14:01;5.50;99.90
23869;DHT22;12115;47.128;15.422;2023-02-24T04:16:42;5.50;99.90
23869;DHT22;12115;47.128;15.422;2023-02-24T04:19:17;5.50;99.90
23869;DHT22;12115;47.128;15.422;2023-02-24T04:21:47;5.60;99.90
23869;DHT22;12115;47.128;15.422;2023-02-24T04:24:25;5.50;99.90
23869;DHT22;12115;47.128;15.422;2023-02-24T04:26:57;5.60;99.90
23869;DHT22;12115;47.128;15.422;2023-02-24T04:29:31;5.60;99.90
23869;DHT22;12115;47.128;15.422;2023-02-24T04:32:06;5.50;99.90
23869;DHT22;12115;47.128;15.422;2023-02-24T04:34:35;5.50;99.90
23869;DHT22;12115;47.128;15.422;2023-02-24T04:37:03;5.50;99.90
23869;DHT22;12115;47.128;15.422;2023-02-24T04:39:32;5.40;99.90
23869;DHT22;12115;47.128;15.422;2023-02-24T04:42:08;5.40;99.90
23869;DHT22;12115;47.128;15.422;2023-02-24T04:44:36;5.40;99.90
23869;DHT22;12115;47.128;15.422;2023-02-24T04:47:04;5.40;99.90
23869;DHT22;12115;47.128;15.422;2023-02-24T04:49:31;5.40;99.90
23869;DHT22;12115;47.128;15.422;2023-02-24T04:52:00;5.40;99.90
23869;DHT22;12115;47.128;15.422;2023-02-24T04:54:27;5.40;99.90
23869;DHT22;12115;47.128;15.422;2023-02-24T04:56:55;5.40;99.90
23869;DHT22;12115;47.128;15.422;2023-02-24T04:59:26;5.40;99.90
23869;DHT22;12115;47.128;15.422;2023-02-24T05:01:54;5.40;99.90
23869;DHT22;12115;47.128;15.422;2023-02-24T05:04:21;5.30;99.90
23869;DHT22;12115;47.128;15.422;2023-02-24T05:06:49;5.40;99.90
23869;DHT22;12115;47.128;15.422;2023-02-24T05:09:17;5.40;99.90
23869;DHT22;12115;47.128;15.422;2023-02-24T05:11:50;5.40;99.90
23869;DHT22;12115;47.128;15.422;2023-02-24T05:14:19;5.40;99.90
23869;DHT22;12115;47.128;15.422;2023-02-24T05:16:48;5.30;99.90
23869;DHT22;12115;47.128;15.422;2023-02-24T05:19:18;5.30;99.90
23869;DHT22;12115;47.128;15.422;2023-02-24T05:22:04;5.30;99.90
23869;DHT22;12115;47.128;15.422;2023-02-24T05:24:37;5.40;99.90
23869;DHT22;12115;47.128;15.422;2023-02-24T05:27:07;5.40;99.90
23869;DHT22;12115;47.128;15.422;2023-02-24T05:29:35;5.40;99.90
23869;DHT22;12115;47.128;15.422;2023-02-24T05:32:03;5.40;99.90
23869;DHT22;12115;47.128;15.422;2023-02-24T05:34:32;5.40;99.90
23869;DHT22;12115;47.128;15.422;2023-02-24T05:37:01;5.30;99.90
23869;DHT22;12115;47.128;15.422;2023-02-24T05:39:36;5.30;99.90
23869;DHT22;12115;47.128;15.422;2023-02-24T05:42:04;5.30;99.90
23869;DHT22;12115;47.128;15.422;2023-02-24T05:44:33;5.30;99.90
23869;DHT22;12115;47.128;15.422;2023-02-24T05:47:02;5.30;99.90
23869;DHT22;12115;47.128;15.422;2023-02-24T05:49:33;5.40;99.90
23869;DHT22;12115;47.128;15.422;2023-02-24T05:52:04;5.40;99.90
23869;DHT22;12115;47.128;15.422;2023-02-24T05:54:39;5.30;99.90
23869;DHT22;12115;47.128;15.422;2023-02-24T05:57:10;5.20;99.90
23869;DHT22;12115;47.128;15.422;2023-02-24T05:59:39;5.20;99.90
23869;DHT22;12115;47.128;15.422;2023-02-24T06:02:09;5.20;99.90
23869;DHT22;12115;47.128;15.422;2023-02-24T06:04:42;5.20;99.90
23869;DHT22;12115;47.128;15.422;2023-02-24T06:07:24;5.30;99.90
23869;DHT22;12115;47.128;15.422;2023-02-24T06:09:53;5.30;99.90
23869;DHT22;12115;47.128;15.422;2023-02-24T06:12:28;5.30;99.90
23869;DHT22;12115;47.128;15.422;2023-02-24T06:14:55;5.30;99.90
23869;DHT22;12115;47.128;15.422;2023-02-24T06:17:27;5.30;99.90
23869;DHT22;12115;47.128;15.422;2023-02-24T06:19:54;5.20;99.90
23869;DHT22;12115;47.128;15.422;2023-02-24T06:22:24;5.20;99.90
23869;DHT22;12115;47.128;15.422;2023-02-24T06:24:53;5.20;99.90
23869;DHT22;12115;47.128;15.422;2023-02-24T06:27:21;5.20;99.90
23869;DHT22;12115;47.128;15.422;2023-02-24T06:29:53;5.10;99.90
23869;DHT22;12115;47.128;15.422;2023-02-24T06:32:23;5.10;99.90
23869;DHT22;12115;47.128;15.422;2023-02-24T06:34:51;5.10;99.90
23869;DHT22;12115;47.128;15.422;2023-02-24T06:37:20;5.20;99.90
23869;DHT22;12115;47.128;15.422;2023-02-24T06:39:49;5.20;99.90
23869;DHT22;12115;47.128;15.422;2023-02-24T06:42:16;5.30;99.90
23869;DHT22;12115;47.128;15.422;2023-02-24T06:44:44;5.30;99.90
23869;DHT22;12115;47.128;15.422;2023-02-24T06:47:12;5.40;99.90
23869;DHT22;12115;47.128;15.422;2023-02-24T06:49:40;5.40;99.90
23869;DHT22;12115;47.128;15.422;2023-02-24T06:52:09;5.50;99.90
23869;DHT22;12115;47.128;15.422;2023-02-24T06:54:37;5.60;99.90
23869;DHT22;12115;47.128;15.422;2023-02-24T06:57:05;5.70;99.90
23869;DHT22;12115;47.128;15.422;2023-02-24T06:59:34;5.80;99.90
23869;DHT22;12115;47.128;15.422;2023-02-24T07:02:01;5.90;99.90
23869;DHT22;12115;47.128;15.422;2023-02-24T07:04:29;6.00;99.90
23869;DHT22;12115;47.128;15.422;2023-02-24T07:07:02;6.10;99.90
23869;DHT22;12115;47.128;15.422;2023-02-24T07:09:30;6.20;99.90
23869;DHT22;12115;47.128;15.422;2023-02-24T07:11:58;6.20;99.90
23869;DHT22;12115;47.128;15.422;2023-02-24T07:14:29;6.30;99.90
23869;DHT22;12115;47.128;15.422;2023-02-24T07:16:58;6.40;99.90
23869;DHT22;12115;47.128;15.422;2023-02-24T07:19:29;6.40;99.90
23869;DHT22;12115;47.128;15.422;2023-02-24T07:22:00;6.50;99.90
23869;DHT22;12115;47.128;15.422;2023-02-24T07:24:35;6.60;99.90
23869;DHT22;12115;47.128;15.422;2023-02-24T07:27:09;6.70;99.90
23869;DHT22;12115;47.128;15.422;2023-02-24T07:29:38;6.70;99.90
23869;DHT22;12115;47.128;15.422;2023-02-24T07:32:07;6.80;99.90
23869;DHT22;12115;47.128;15.422;2023-02-24T07:34:36;6.80;99.90
23869;DHT22;12115;47.128;15.422;2023-02-24T07:37:08;6.80;99.90
23869;DHT22;12115;47.128;15.422;2023-02-24T07:39:37;6.90;99.90
23869;DHT22;12115;47.128;15.422;2023-02-24T07:42:07;7.00;99.90
23869;DHT22;12115;47.128;15.422;2023-02-24T07:44:42;7.10;99.90
23869;DHT22;12115;47.128;15.422;2023-02-24T07:47:12;7.40;99.90
23869;DHT22;12115;47.128;15.422;2023-02-24T07:49:42;7.90;99.90
23869;DHT22;12115;47.128;15.422;2023-02-24T07:52:09;8.20;99.90
23869;DHT22;12115;47.128;15.422;2023-02-24T07:54:37;8.50;99.90
23869;DHT22;12115;47.128;15.422;2023-02-24T07:57:06;9.20;99.90
23869;DHT22;12115;47.128;15.422;2023-02-24T07:59:40;9.80;99.90
23869;DHT22;12115;47.128;15.422;2023-02-24T08:02:14;10.30;99.90
23869;DHT22;12115;47.128;15.422;2023-02-24T08:04:42;11.00;99.90
23869;DHT22;12115;47.128;15.422;2023-02-24T08:07:15;11.30;99.90
23869;DHT22;12115;47.128;15.422;2023-02-24T08:09:42;11.80;99.90
23869;DHT22;12115;47.128;15.422;2023-02-24T08:12:18;12.20;99.90
23869;DHT22;12115;47.128;15.422;2023-02-24T08:14:50;12.60;99.90
23869;DHT22;12115;47.128;15.422;2023-02-24T08:17:21;13.20;99.90
23869;DHT22;12115;47.128;15.422;2023-02-24T08:19:50;13.50;99.90
23869;DHT22;12115;47.128;15.422;2023-02-24T08:22:34;13.70;99.90
23869;DHT22;12115;47.128;15.422;2023-02-24T08:25:03;13.90;99.90
23869;DHT22;12115;47.128;15.422;2023-02-24T08:27:35;14.20;99.90
23869;DHT22;12115;47.128;15.422;2023-02-24T08:30:06;14.60;99.90
23869;DHT22;12115;47.128;15.422;2023-02-24T08:32:37;14.80;99.90
23869;DHT22;12115;47.128;15.422;2023-02-24T08:35:07;15.00;99.90
23869;DHT22;12115;47.128;15.422;2023-02-24T08:37:50;15.40;99.90
23869;DHT22;12115;47.128;15.422;2023-02-24T08:40:25;15.20;98.60
23869;DHT22;12115;47.128;15.422;2023-02-24T08:48:30;14.70;98.10
23869;DHT22;12115;47.128;15.422;2023-02-24T08:53:33;15.10;98.40
23869;DHT22;12115;47.128;15.422;2023-02-24T08:56:02;15.10;97.80
23869;DHT22;12115;47.128;15.422;2023-02-24T08:58:43;15.20;98.90
23869;DHT22;12115;47.128;15.422;2023-02-24T09:01:19;15.70;98.70
23869;DHT22;12115;47.128;15.422;2023-02-24T09:03:58;15.80;96.80
23869;DHT22;12115;47.128;15.422;2023-02-24T09:06:44;15.70;95.10
23869;DHT22;12115;47.128;15.422;2023-02-24T09:09:14;16.00;95.20
23869;DHT22;12115;47.128;15.422;2023-02-24T09:11:50;16.60;95.80
23869;DHT22;12115;47.128;15.422;2023-02-24T09:14:26;17.10;94.70
23869;DHT22;12115;47.128;15.422;2023-02-24T09:16:57;17.20;93.70
23869;DHT22;12115;47.128;15.422;2023-02-24T09:19:36;17.30;92.80
23869;DHT22;12115;47.128;15.422;2023-02-24T09:22:08;17.70;92.40
23869;DHT22;12115;47.128;15.422;2023-02-24T09:24:48;18.10;93.20
23869;DHT22;12115;47.128;15.422;2023-02-24T09:27:17;18.50;91.40
23869;DHT22;12115;47.128;15.422;2023-02-24T09:29:44;18.30;90.50
23869;DHT22;12115;47.128;15.422;2023-02-24T09:32:17;18.20;90.70
23869;DHT22;12115;47.128;15.422;2023-02-24T09:34:45;18.50;89.60
23869;DHT22;12115;47.128;15.422;2023-02-24T09:37:13;18.70;89.70
23869;DHT22;12115;47.128;15.422;2023-02-24T09:39:53;19.10;89.20
23869;DHT22;12115;47.128;15.422;2023-02-24T09:42:28;19.60;87.10
23869;DHT22;12115;47.128;15.422;2023-02-24T09:45:05;20.10;86.50
23869;DHT22;12115;47.128;15.422;2023-02-24T09:47:42;20.10;83.60
23869;DHT22;12115;47.128;15.422;2023-02-24T09:50:25;20.50;79.60
23869;DHT22;12115;47.128;15.422;2023-02-24T09:53:24;20.50;80.00
23869;DHT22;12115;47.128;15.422;2023-02-24T09:56:04;20.50;77.90
23869;DHT22;12115;47.128;15.422;2023-02-24T10:07:29;23.00;68.50
23869;DHT22;12115;47.128;15.422;2023-02-24T10:10:28;23.70;67.00
23869;DHT22;12115;47.128;15.422;2023-02-24T10:13:06;23.90;64.60
23869;DHT22;12115;47.128;15.422;2023-02-24T10:15:45;23.50;64.90
23869;DHT22;12115;47.128;15.422;2023-02-24T10:21:29;22.10;67.50
23869;DHT22;12115;47.128;15.422;2023-02-24T10:24:46;22.00;68.00
23869;DHT22;12115;47.128;15.422;2023-02-24T10:35:15;23.70;64.00
23869;DHT22;12115;47.128;15.422;2023-02-24T10:37:44;23.80;59.90
23869;DHT22;12115;47.128;15.422;2023-02-24T10:40:13;24.30;59.60
23869;DHT22;12115;47.128;15.422;2023-02-24T10:43:01;24.10;61.40
23869;DHT22;12115;47.128;15.422;2023-02-24T10:45:29;24.10;59.80
23869;DHT22;12115;47.128;15.422;2023-02-24T10:48:06;23.80;59.80
23869;DHT22;12115;47.128;15.422;2023-02-24T10:50:43;23.80;59.60
23869;DHT22;12115;47.128;15.422;2023-02-24T10:53:26;24.40;58.70
23869;DHT22;12115;47.128;15.422;2023-02-24T10:56:13;23.60;58.40
23869;DHT22;12115;47.128;15.422;2023-02-24T10:58:42;23.40;59.70
23869;DHT22;12115;47.128;15.422;2023-02-24T11:01:32;23.40;59.70
23869;DHT22;12115;47.128;15.422;2023-02-24T11:04:19;23.10;60.00
23869;DHT22;12115;47.128;15.422;2023-02-24T11:07:11;22.60;59.70
23869;DHT22;12115;47.128;15.422;2023-02-24T11:09:39;21.30;61.90
23869;DHT22;12115;47.128;15.422;2023-02-24T11:12:22;20.90;64.80
23869;DHT22;12115;47.128;15.422;2023-02-24T11:15:28;20.70;64.60
23869;DHT22;12115;47.128;15.422;2023-02-24T11:18:22;19.80;65.50
23869;DHT22;12115;47.128;15.422;2023-02-24T11:20:54;19.10;67.00
23869;DHT22;12115;47.128;15.422;2023-02-24T11:23:27;18.80;68.50
23869;DHT22;12115;47.128;15.422;2023-02-24T11:26:15;18.60;68.90
23869;DHT22;12115;47.128;15.422;2023-02-24T11:35:04;17.90;71.30
23869;DHT22;12115;47.128;15.422;2023-02-24T11:37:37;17.80;71.80
23869;DHT22;12115;47.128;15.422;2023-02-24T11:40:31;17.70;72.00
23869;DHT22;12115;47.128;15.422;2023-02-24T11:43:04;17.50;73.00
23869;DHT22;12115;47.128;15.422;2023-02-24T11:45:53;17.50;72.90
23869;DHT22;12115;47.128;15.422;2023-02-24T11:54:07;17.40;74.00
23869;DHT22;12115;47.128;15.422;2023-02-24T11:56:42;17.60;73.60
23869;DHT22;12115;47.128;15.422;2023-02-24T12:02:15;17.00;73.50
23869;DHT22;12115;47.128;15.422;2023-02-24T12:07:51;16.80;74.00
23869;DHT22;12115;47.128;15.422;2023-02-24T12:13:22;16.30;74.50
23869;DHT22;12115;47.128;15.422;2023-02-24T12:16:10;16.00;75.00
23869;DHT22;12115;47.128;15.422;2023-02-24T12:23:52;15.80;77.30
23869;DHT22;12115;47.128;15.422;2023-02-24T12:29:35;15.80;77.10
23869;DHT22;12115;47.128;15.422;2023-02-24T12:41:09;15.80;77.10
23869;DHT22;12115;47.128;15.422;2023-02-24T12:46:24;15.60;77.10
23869;DHT22;12115;47.128;15.422;2023-02-24T12:49:12;15.50;76.90
23869;DHT22;12115;47.128;15.422;2023-02-24T12:52:02;15.50;77.30
23869;DHT22;12115;47.128;15.422;2023-02-24T12:54:59;15.50;77.30
23869;DHT22;12115;47.128;15.422;2023-02-24T12:57:47;15.40;77.10
23869;DHT22;12115;47.128;15.422;2023-02-24T13:05:46;15.40;77.00
23869;DHT22;12115;47.128;15.422;2023-02-24T13:08:27;15.50;77.20
23869;DHT22;12115;47.128;15.422;2023-02-24T13:13:53;15.40;77.00
23869;DHT22;12115;47.128;15.422;2023-02-24T13:16:33;15.30;76.20
23869;DHT22;12115;47.128;15.422;2023-02-24T13:19:51;15.30;76.70
23869;DHT22;12115;47.128;15.422;2023-02-24T13:24:41;15.20;77.00
23869;DHT22;12115;47.128;15.422;2023-02-24T13:29:54;15.10;77.10
23869;DHT22;12115;47.128;15.422;2023-02-24T13:34:56;15.00;76.50
23869;DHT22;12115;47.128;15.422;2023-02-24T13:37:36;15.00;77.00
23869;DHT22;12115;47.128;15.422;2023-02-24T13:45:34;15.00;76.50
23869;DHT22;12115;47.128;15.422;2023-02-24T13:58:52;14.80;76.80
23869;DHT22;12115;47.128;15.422;2023-02-24T14:01:26;14.80;77.10
23869;DHT22;12115;47.128;15.422;2023-02-24T14:04:13;14.80;77.40
23869;DHT22;12115;47.128;15.422;2023-02-24T14:06:48;14.80;76.90
23869;DHT22;12115;47.128;15.422;2023-02-24T14:09:22;14.80;77.50
23869;DHT22;12115;47.128;15.422;2023-02-24T14:12:00;14.70;76.80
23869;DHT22;12115;47.128;15.422;2023-02-24T14:14:29;14.70;77.30
23869;DHT22;12115;47.128;15.422;2023-02-24T14:16:57;14.80;77.40
23869;DHT22;12115;47.128;15.422;2023-02-24T14:19:25;14.80;76.90
23869;DHT22;12115;47.128;15.422;2023-02-24T14:21:54;14.80;76.20
23869;DHT22;12115;47.128;15.422;2023-02-24T14:25:10;14.80;77.00
23869;DHT22;12115;47.128;15.422;2023-02-24T14:27:38;14.80;76.60
23869;DHT22;12115;47.128;15.422;2023-02-24T14:30:07;14.80;76.40
23869;DHT22;12115;47.128;15.422;2023-02-24T14:32:47;14.90;76.50
23869;DHT22;12115;47.128;15.422;2023-02-24T14:35:22;15.00;75.70
23869;DHT22;12115;47.128;15.422;2023-02-24T14:37:50;15.00;75.00
23869;DHT22;12115;47.128;15.422;2023-02-24T14:40:18;15.00;74.30
23869;DHT22;12115;47.128;15.422;2023-02-24T14:42:49;15.10;74.20
23869;DHT22;12115;47.128;15.422;2023-02-24T14:45:18;15.10;73.80
23869;DHT22;12115;47.128;15.422;2023-02-24T14:47:46;15.10;73.60
23869;DHT22;12115;47.128;15.422;2023-02-24T14:50:16;15.00;72.90
23869;DHT22;12115;47.128;15.422;2023-02-24T14:52:51;15.00;73.20
23869;DHT22;12115;47.128;15.422;2023-02-24T14:55:25;15.00;72.80
23869;DHT22;12115;47.128;15.422;2023-02-24T15:00:40;15.00;72.70
23869;DHT22;12115;47.128;15.422;2023-02-24T15:03:24;15.00;73.40
23869;DHT22;12115;47.128;15.422;2023-02-24T15:06:04;15.00;73.10
23869;DHT22;12115;47.128;15.422;2023-02-24T15:08:41;15.00;74.50
23869;DHT22;12115;47.128;15.422;2023-02-24T15:14:06;15.00;72.90
23869;DHT22;12115;47.128;15.422;2023-02-24T15:16:42;15.00;73.60
23869;DHT22;12115;47.128;15.422;2023-02-24T15:19:25;15.00;74.10
23869;DHT22;12115;47.128;15.422;2023-02-24T15:21:55;15.00;73.80
23869;DHT22;12115;47.128;15.422;2023-02-24T15:24:27;15.00;74.00
23869;DHT22;12115;47.128;15.422;2023-02-24T15:26:59;15.00;73.70
23869;DHT22;12115;47.128;15.422;2023-02-24T15:29:29;15.00;73.90
23869;DHT22;12115;47.128;15.422;2023-02-24T15:31:59;15.00;74.10
23869;DHT22;12115;47.128;15.422;2023-02-24T15:34:33;15.00;74.60
23869;DHT22;12115;47.128;15.422;2023-02-24T15:37:12;14.80;74.40
23869;DHT22;12115;47.128;15.422;2023-02-24T15:39:42;14.80;74.40
23869;DHT22;12115;47.128;15.422;2023-02-24T15:42:31;14.80;74.50
23869;DHT22;12115;47.128;15.422;2023-02-24T15:45:21;14.80;74.40
23869;DHT22;12115;47.128;15.422;2023-02-24T15:47:55;14.80;74.50
23869;DHT22;12115;47.128;15.422;2023-02-24T15:50:23;14.70;74.70
23869;DHT22;12115;47.128;15.422;2023-02-24T15:52:51;14.70;74.60
23869;DHT22;12115;47.128;15.422;2023-02-24T15:55:20;14.60;74.60
23869;DHT22;12115;47.128;15.422;2023-02-24T15:57:56;14.60;74.70
23869;DHT22;12115;47.128;15.422;2023-02-24T16:00:25;14.40;74.50
23869;DHT22;12115;47.128;15.422;2023-02-24T16:02:53;14.40;75.00
23869;DHT22;12115;47.128;15.422;2023-02-24T16:05:21;14.40;75.20
23869;DHT22;12115;47.128;15.422;2023-02-24T16:07:50;14.30;75.70
23869;DHT22;12115;47.128;15.422;2023-02-24T16:10:23;14.20;75.70
23869;DHT22;12115;47.128;15.422;2023-02-24T16:12:56;14.20;76.10
23869;DHT22;12115;47.128;15.422;2023-02-24T16:15:28;14.10;76.70
23869;DHT22;12115;47.128;15.422;2023-02-24T16:17:56;14.10;76.80
23869;DHT22;12115;47.128;15.422;2023-02-24T16:20:28;14.10;77.20
23869;DHT22;12115;47.128;15.422;2023-02-24T16:22:59;14.00;77.50
23869;DHT22;12115;47.128;15.422;2023-02-24T16:25:29;13.90;78.40
23869;DHT22;12115;47.128;15.422;2023-02-24T16:28:02;13.70;78.40
23869;DHT22;12115;47.128;15.422;2023-02-24T16:30:30;13.70;78.20
23869;DHT22;12115;47.128;15.422;2023-02-24T16:32:59;13.70;78.00
23869;DHT22;12115;47.128;15.422;2023-02-24T16:35:27;13.70;78.60
23869;DHT22;12115;47.128;15.422;2023-02-24T16:37:55;13.60;79.10
23869;DHT22;12115;47.128;15.422;2023-02-24T16:40:32;13.40;79.40
23869;DHT22;12115;47.128;15.422;2023-02-24T16:43:03;13.30;79.60
23869;DHT22;12115;47.128;15.422;2023-02-24T16:45:33;13.30;80.20
23869;DHT22;12115;47.128;15.422;2023-02-24T16:48:04;13.10;81.00
23869;DHT22;12115;47.128;15.422;2023-02-24T16:50:42;13.00;81.30
23869;DHT22;12115;47.128;15.422;2023-02-24T16:53:15;12.90;81.30
23869;DHT22;12115;47.128;15.422;2023-02-24T16:55:46;12.80;81.50
23869;DHT22;12115;47.128;15.422;2023-02-24T16:58:15;12.70;81.70
23869;DHT22;12115;47.128;15.422;2023-02-24T17:00:45;12.60;81.60
23869;DHT22;12115;47.128;15.422;2023-02-24T17:05:49;12.50;82.00
23869;DHT22;12115;47.128;15.422;2023-02-24T17:08:18;12.40;82.10
23869;DHT22;12115;47.128;15.422;2023-02-24T17:10:46;12.30;82.60
23869;DHT22;12115;47.128;15.422;2023-02-24T17:13:16;12.20;82.80
23869;DHT22;12115;47.128;15.422;2023-02-24T17:15:48;12.10;83.20
23869;DHT22;12115;47.128;15.422;2023-02-24T17:18:22;11.90;83.90
23869;DHT22;12115;47.128;15.422;2023-02-24T17:20:50;11.80;84.30
23869;DHT22;12115;47.128;15.422;2023-02-24T17:23:18;11.70;84.80
23869;DHT22;12115;47.128;15.422;2023-02-24T17:25:47;11.70;84.10
23869;DHT22;12115;47.128;15.422;2023-02-24T17:28:18;11.70;84.20
23869;DHT22;12115;47.128;15.422;2023-02-24T17:30:45;11.70;84.10
23869;DHT22;12115;47.128;15.422;2023-02-24T17:33:13;11.70;84.20
23869;DHT22;12115;47.128;15.422;2023-02-24T17:35:42;11.70;84.60
23869;DHT22;12115;47.128;15.422;2023-02-24T17:38:14;11.60;84.60
23869;DHT22;12115;47.128;15.422;2023-02-24T17:40:43;11.60;85.20
23869;DHT22;12115;47.128;15.422;2023-02-24T17:43:11;11.50;85.10
23869;DHT22;12115;47.128;15.422;2023-02-24T17:45:45;11.50;84.90
23869;DHT22;12115;47.128;15.422;2023-02-24T17:48:13;11.40;85.00
23869;DHT22;12115;47.128;15.422;2023-02-24T17:50:44;11.40;84.80
23869;DHT22;12115;47.128;15.422;2023-02-24T17:53:11;11.40;84.70
23869;DHT22;12115;47.128;15.422;2023-02-24T17:55:40;11.40;84.90
23869;DHT22;12115;47.128;15.422;2023-02-24T17:58:25;11.30;85.10
23869;DHT22;12115;47.128;15.422;2023-02-24T18:00:53;11.30;85.90
23869;DHT22;12115;47.128;15.422;2023-02-24T18:03:23;11.20;85.90
23869;DHT22;12115;47.128;15.422;2023-02-24T18:06:08;11.10;85.70
23869;DHT22;12115;47.128;15.422;2023-02-24T18:08:40;11.10;85.70
23869;DHT22;12115;47.128;15.422;2023-02-24T18:11:15;11.10;86.30
23869;DHT22;12115;47.128;15.422;2023-02-24T18:13:44;11.00;86.80
23869;DHT22;12115;47.128;15.422;2023-02-24T18:16:13;10.90;86.30
23869;DHT22;12115;47.128;15.422;2023-02-24T18:18:41;10.90;86.60
23869;DHT22;12115;47.128;15.422;2023-02-24T18:21:09;10.90;86.30
23869;DHT22;12115;47.128;15.422;2023-02-24T18:23:37;10.80;87.00
23869;DHT22;12115;47.128;15.422;2023-02-24T18:26:08;10.80;86.30
23869;DHT22;12115;47.128;15.422;2023-02-24T18:28:37;10.80;85.90